sensor_id;sensor_type;location;lat;lon;timestamp;pressure;altitude;pressure_sealevel;temperature;humidity
56671;BME280;42545;50.054;8.306;2023-04-28T00:00:00;99808.13;;;10.81;64.94
56671;BME280;42545;50.054;8.306;2023-04-28T00:02:27;99794.00;;;10.77;65.28
56671;BME280;42545;50.054;8.306;2023-04-28T00:04:53;99784.34;;;10.77;65.70
56671;BME280;42545;50.054;8.306;2023-04-28T00:07:20;99779.88;;;10.75;65.65
56671;BME280;42545;50.054;8.306;2023-04-28T00:09:47;99786.03;;;10.72;65.99
56671;BME280;42545;50.054;8.306;2023-04-28T00:12:13;99775.44;;;10.69;66.07
56671;BME280;42545;50.054;8.306;2023-04-28T00:14:41;99770.16;;;10.69;66.15
56671;BME280;42545;50.054;8.306;2023-04-28T00:17:08;99765.75;;;10.68;66.69
56671;BME280;42545;50.054;8.306;2023-04-28T00:19:34;99751.66;;;10.65;67.00
56671;BME280;42545;50.054;8.306;2023-04-28T00:22:02;99748.13;;;10.64;67.08
56671;BME280;42545;50.054;8.306;2023-04-28T00:24:29;99753.34;;;10.60;66.87
56671;BME280;42545;50.054;8.306;2023-04-28T00:26:57;99748.91;;;10.55;66.53
56671;BME280;42545;50.054;8.306;2023-04-28T00:29:28;99752.38;;;10.53;66.28
56671;BME280;42545;50.054;8.306;2023-04-28T00:31:56;99761.16;;;10.52;66.40
56671;BME280;42545;50.054;8.306;2023-04-28T00:34:23;99754.09;;;10.51;66.72
56671;BME280;42545;50.054;8.306;2023-04-28T00:36:49;99746.22;;;10.52;66.93
56671;BME280;42545;50.054;8.306;2023-04-28T00:39:16;99753.25;;;10.52;67.31
56671;BME280;42545;50.054;8.306;2023-04-28T00:41:43;99741.81;;;10.50;67.57
56671;BME280;42545;50.054;8.306;2023-04-28T00:44:09;99742.63;;;10.47;67.89
56671;BME280;42545;50.054;8.306;2023-04-28T00:46:36;99743.50;;;10.45;68.84
56671;BME280;42545;50.054;8.306;2023-04-28T00:49:04;99746.97;;;10.42;69.31
56671;BME280;42545;50.054;8.306;2023-04-28T00:51:31;99750.44;;;10.38;69.45
56671;BME280;42545;50.054;8.306;2023-04-28T00:53:58;99738.13;;;10.35;69.82
56671;BME280;42545;50.054;8.306;2023-04-28T00:56:24;99736.34;;;10.34;70.85
56671;BME280;42545;50.054;8.306;2023-04-28T00:58:52;99731.06;;;10.34;71.24
56671;BME280;42545;50.054;8.306;2023-04-28T01:01:19;99728.41;;;10.33;71.50
56671;BME280;42545;50.054;8.306;2023-04-28T01:03:46;99713.31;;;10.26;71.71
56671;BME280;42545;50.054;8.306;2023-04-28T01:06:15;99713.38;;;10.29;71.90
56671;BME280;42545;50.054;8.306;2023-04-28T01:08:42;99708.97;;;10.26;72.26
56671;BME280;42545;50.054;8.306;2023-04-28T01:11:09;99696.66;;;10.27;72.89
56671;BME280;42545;50.054;8.306;2023-04-28T01:13:38;99693.16;;;10.26;73.37
56671;BME280;42545;50.054;8.306;2023-04-28T01:16:05;99694.88;;;10.26;74.02
56671;BME280;42545;50.054;8.306;2023-04-28T01:18:32;99685.16;;;10.22;74.77
56671;BME280;42545;50.054;8.306;2023-04-28T01:20:59;99693.16;;;10.29;75.67
56671;BME280;42545;50.054;8.306;2023-04-28T01:23:29;99702.81;;;10.27;76.15
56671;BME280;42545;50.054;8.306;2023-04-28T01:25:58;99699.28;;;10.27;77.29
56671;BME280;42545;50.054;8.306;2023-04-28T01:28:26;99687.81;;;10.23;78.33
56671;BME280;42545;50.054;8.306;2023-04-28T01:30:52;99682.50;;;10.18;79.76
56671;BME280;42545;50.054;8.306;2023-04-28T01:33:20;99689.44;;;10.12;80.88
56671;BME280;42545;50.054;8.306;2023-04-28T01:35:47;99684.03;;;10.01;81.43
56671;BME280;42545;50.054;8.306;2023-04-28T01:38:13;99682.16;;;9.92;82.49
56671;BME280;42545;50.054;8.306;2023-04-28T01:40:40;99681.22;;;9.86;83.19
56671;BME280;42545;50.054;8.306;2023-04-28T01:43:08;99683.78;;;9.81;84.39
56671;BME280;42545;50.054;8.306;2023-04-28T01:45:35;99686.38;;;9.78;85.17
56671;BME280;42545;50.054;8.306;2023-04-28T01:48:01;99694.22;;;9.73;86.14
56671;BME280;42545;50.054;8.306;2023-04-28T01:50:28;99693.31;;;9.73;86.91
56671;BME280;42545;50.054;8.306;2023-04-28T01:52:54;99688.00;;;9.68;87.78
56671;BME280;42545;50.054;8.306;2023-04-28T01:55:21;99693.19;;;9.63;88.21
56671;BME280;42545;50.054;8.306;2023-04-28T01:57:47;99690.53;;;9.60;88.32
56671;BME280;42545;50.054;8.306;2023-04-28T02:00:16;99689.63;;;9.58;88.77
56671;BME280;42545;50.054;8.306;2023-04-28T02:02:43;99674.66;;;9.57;89.34
56671;BME280;42545;50.054;8.306;2023-04-28T02:05:09;99686.06;;;9.56;89.89
56671;BME280;42545;50.054;8.306;2023-04-28T02:07:36;99686.06;;;9.55;90.63
56671;BME280;42545;50.054;8.306;2023-04-28T02:10:03;99692.22;;;9.55;91.30
56671;BME280;42545;50.054;8.306;2023-04-28T02:12:30;99688.66;;;9.53;92.01
56671;BME280;42545;50.054;8.306;2023-04-28T02:14:57;99686.03;;;9.53;92.56
56671;BME280;42545;50.054;8.306;2023-04-28T02:17:28;99690.44;;;9.53;93.30
56671;BME280;42545;50.054;8.306;2023-04-28T02:19:55;99675.47;;;9.52;94.44
56671;BME280;42545;50.054;8.306;2023-04-28T02:22:22;99678.94;;;9.51;94.47
56671;BME280;42545;50.054;8.306;2023-04-28T02:24:49;99672.81;;;9.50;95.07
56671;BME280;42545;50.054;8.306;2023-04-28T02:27:16;99678.03;;;9.47;95.64
56671;BME280;42545;50.054;8.306;2023-04-28T02:29:43;99664.88;;;9.46;96.32
56671;BME280;42545;50.054;8.306;2023-04-28T02:32:10;99666.56;;;9.43;96.65
56671;BME280;42545;50.054;8.306;2023-04-28T02:34:38;99663.03;;;9.41;97.34
56671;BME280;42545;50.054;8.306;2023-04-28T02:37:05;99648.97;;;9.41;98.00
56671;BME280;42545;50.054;8.306;2023-04-28T02:39:31;99650.75;;;9.43;98.82
56671;BME280;42545;50.054;8.306;2023-04-28T02:41:58;99649.94;;;9.46;99.66
56671;BME280;42545;50.054;8.306;2023-04-28T02:44:25;99650.78;;;9.45;100.00
56671;BME280;42545;50.054;8.306;2023-04-28T02:46:51;99644.63;;;9.43;100.00
56671;BME280;42545;50.054;8.306;2023-04-28T02:49:18;99647.19;;;9.40;100.00
56671;BME280;42545;50.054;8.306;2023-04-28T02:51:46;99644.56;;;9.38;100.00
56671;BME280;42545;50.054;8.306;2023-04-28T02:54:12;99635.75;;;9.38;100.00
56671;BME280;42545;50.054;8.306;2023-04-28T02:56:39;99640.19;;;9.39;100.00
56671;BME280;42545;50.054;8.306;2023-04-28T02:59:06;99629.66;;;9.39;100.00
56671;BME280;42545;50.054;8.306;2023-04-28T03:01:33;99620.88;;;9.40;100.00
56671;BME280;42545;50.054;8.306;2023-04-28T03:03:59;99629.66;;;9.40;100.00
56671;BME280;42545;50.054;8.306;2023-04-28T03:06:26;99627.84;;;9.38;100.00
56671;BME280;42545;50.054;8.306;2023-04-28T03:08:54;99630.50;;;9.36;100.00
56671;BME280;42545;50.054;8.306;2023-04-28T03:11:21;99613.66;;;9.27;100.00
56671;BME280;42545;50.054;8.306;2023-04-28T03:13:47;99629.50;;;9.30;100.00
56671;BME280;42545;50.054;8.306;2023-04-28T03:16:14;99631.28;;;9.29;100.00
56671;BME280;42545;50.054;8.306;2023-04-28T03:18:41;99632.16;;;9.30;100.00
56671;BME280;42545;50.054;8.306;2023-04-28T03:21:08;99628.63;;;9.29;100.00
56671;BME280;42545;50.054;8.306;2023-04-28T03:23:34;99621.66;;;9.31;100.00
56671;BME280;42545;50.054;8.306;2023-04-28T03:26:03;99620.72;;;9.31;100.00
56671;BME280;42545;50.054;8.306;2023-04-28T03:28:29;99615.44;;;9.28;100.00
56671;BME280;42545;50.054;8.306;2023-04-28T03:30:56;99609.28;;;9.27;100.00
56671;BME280;42545;50.054;8.306;2023-04-28T03:33:23;99611.06;;;9.28;100.00
56671;BME280;42545;50.054;8.306;2023-04-28T03:35:50;99601.38;;;9.27;100.00
56671;BME280;42545;50.054;8.306;2023-04-28T03:38:17;99598.75;;;9.27;100.00
56671;BME280;42545;50.054;8.306;2023-04-28T03:40:44;99587.28;;;9.22;100.00
56671;BME280;42545;50.054;8.306;2023-04-28T03:43:13;99592.59;;;9.27;100.00
56671;BME280;42545;50.054;8.306;2023-04-28T03:45:39;99599.69;;;9.29;100.00
56671;BME280;42545;50.054;8.306;2023-04-28T03:48:06;99597.91;;;9.30;100.00
56671;BME280;42545;50.054;8.306;2023-04-28T03:50:33;99582.09;;;9.28;100.00
56671;BME280;42545;50.054;8.306;2023-04-28T03:52:59;99589.16;;;9.29;100.00
56671;BME280;42545;50.054;8.306;2023-04-28T03:55:26;99584.72;;;9.28;100.00
56671;BME280;42545;50.054;8.306;2023-04-28T03:57:53;99583.81;;;9.26;100.00
56671;BME280;42545;50.054;8.306;2023-04-28T04:00:21;99587.31;;;9.25;100.00
56671;BME280;42545;50.054;8.306;2023-04-28T04:02:47;99582.94;;;9.24;100.00
56671;BME280;42545;50.054;8.306;2023-04-28T04:05:14;99578.50;;;9.23;100.00
56671;BME280;42545;50.054;8.306;2023-04-28T04:07:41;99575.84;;;9.20;100.00
56671;BME280;42545;50.054;8.306;2023-04-28T04:10:08;99567.03;;;9.16;100.00
56671;BME280;42545;50.054;8.306;2023-04-28T04:12:34;99581.03;;;9.15;100.00
56671;BME280;42545;50.054;8.306;2023-04-28T04:15:01;99566.09;;;9.13;100.00
56671;BME280;42545;50.054;8.306;2023-04-28T04:17:29;99574.88;;;9.13;100.00
56671;BME280;42545;50.054;8.306;2023-04-28T04:19:55;99565.25;;;9.15;100.00
56671;BME280;42545;50.054;8.306;2023-04-28T04:22:22;99571.38;;;9.16;100.00
56671;BME280;42545;50.054;8.306;2023-04-28T04:24:51;99570.53;;;9.17;100.00
56671;BME280;42545;50.054;8.306;2023-04-28T04:27:18;99569.69;;;9.19;100.00
56671;BME280;42545;50.054;8.306;2023-04-28T04:29:45;99564.41;;;9.19;100.00
56671;BME280;42545;50.054;8.306;2023-04-28T04:32:11;99560.97;;;9.22;100.00
56671;BME280;42545;50.054;8.306;2023-04-28T04:34:39;99564.47;;;9.22;100.00
56671;BME280;42545;50.054;8.306;2023-04-28T04:37:06;99553.88;;;9.19;100.00
56671;BME280;42545;50.054;8.306;2023-04-28T04:39:33;99560.91;;;9.19;100.00
56671;BME280;42545;50.054;8.306;2023-04-28T04:41:59;99562.69;;;9.21;100.00
56671;BME280;42545;50.054;8.306;2023-04-28T04:44:27;99553.06;;;9.23;100.00
56671;BME280;42545;50.054;8.306;2023-04-28T04:46:53;99564.56;;;9.30;100.00
56671;BME280;42545;50.054;8.306;2023-04-28T04:49:20;99559.34;;;9.33;100.00
56671;BME280;42545;50.054;8.306;2023-04-28T04:51:48;99561.13;;;9.36;100.00
56671;BME280;42545;50.054;8.306;2023-04-28T04:54:14;99574.31;;;9.36;100.00
56671;BME280;42545;50.054;8.306;2023-04-28T04:56:41;99576.03;;;9.34;100.00
56671;BME280;42545;50.054;8.306;2023-04-28T04:59:08;99582.16;;;9.31;100.00
56671;BME280;42545;50.054;8.306;2023-04-28T05:01:34;99590.03;;;9.30;100.00
56671;BME280;42545;50.054;8.306;2023-04-28T05:04:01;99589.16;;;9.29;100.00
56671;BME280;42545;50.054;8.306;2023-04-28T05:06:27;99590.91;;;9.30;100.00
56671;BME280;42545;50.054;8.306;2023-04-28T05:08:57;99583.00;;;9.30;100.00
56671;BME280;42545;50.054;8.306;2023-04-28T05:11:23;99582.94;;;9.27;100.00
56671;BME280;42545;50.054;8.306;2023-04-28T05:13:50;99594.34;;;9.24;100.00
56671;BME280;42545;50.054;8.306;2023-04-28T05:16:16;99589.91;;;9.20;100.00
56671;BME280;42545;50.054;8.306;2023-04-28T05:18:43;99577.44;;;9.10;100.00
56671;BME280;42545;50.054;8.306;2023-04-28T05:21:10;99586.28;;;9.14;100.00
56671;BME280;42545;50.054;8.306;2023-04-28T05:23:36;99585.34;;;9.10;100.00
56671;BME280;42545;50.054;8.306;2023-04-28T05:26:05;99586.16;;;9.04;100.00
56671;BME280;42545;50.054;8.306;2023-04-28T05:28:31;99581.69;;;9.00;100.00
56671;BME280;42545;50.054;8.306;2023-04-28T05:30:58;99577.25;;;8.96;100.00
56671;BME280;42545;50.054;8.306;2023-04-28T05:33:25;99581.66;;;8.97;100.00
56671;BME280;42545;50.054;8.306;2023-04-28T05:35:51;99585.16;;;8.98;100.00
56671;BME280;42545;50.054;8.306;2023-04-28T05:38:18;99580.78;;;8.97;100.00
56671;BME280;42545;50.054;8.306;2023-04-28T05:40:45;99593.91;;;8.95;100.00
56671;BME280;42545;50.054;8.306;2023-04-28T05:43:12;99583.38;;;8.95;100.00
56671;BME280;42545;50.054;8.306;2023-04-28T05:45:39;99600.00;;;8.93;100.00
56671;BME280;42545;50.054;8.306;2023-04-28T05:48:06;99592.91;;;8.89;100.00
56671;BME280;42545;50.054;8.306;2023-04-28T05:50:32;99584.13;;;8.88;100.00
56671;BME280;42545;50.054;8.306;2023-04-28T05:52:59;99586.81;;;8.90;100.00
56671;BME280;42545;50.054;8.306;2023-04-28T05:55:25;99584.16;;;8.90;100.00
56671;BME280;42545;50.054;8.306;2023-04-28T05:57:53;99588.56;;;8.89;100.00
56671;BME280;42545;50.054;8.306;2023-04-28T06:00:21;99585.94;;;8.89;100.00
56671;BME280;42545;50.054;8.306;2023-04-28T06:02:48;99590.28;;;8.89;100.00
56671;BME280;42545;50.054;8.306;2023-04-28T06:05:15;99586.81;;;8.90;100.00
56671;BME280;42545;50.054;8.306;2023-04-28T06:07:41;99584.13;;;8.87;100.00
56671;BME280;42545;50.054;8.306;2023-04-28T06:10:09;99579.72;;;8.85;100.00
56671;BME280;42545;50.054;8.306;2023-04-28T06:12:36;99582.34;;;8.85;100.00
56671;BME280;42545;50.054;8.306;2023-04-28T06:15:03;99570.09;;;8.86;100.00
56671;BME280;42545;50.054;8.306;2023-04-28T06:17:32;99585.88;;;8.86;100.00
56671;BME280;42545;50.054;8.306;2023-04-28T06:19:59;99589.38;;;8.87;100.00
56671;BME280;42545;50.054;8.306;2023-04-28T06:22:25;99597.31;;;8.90;100.00
56671;BME280;42545;50.054;8.306;2023-04-28T06:24:52;99598.19;;;8.90;100.00
56671;BME280;42545;50.054;8.306;2023-04-28T06:27:19;99600.84;;;8.92;100.00
56671;BME280;42545;50.054;8.306;2023-04-28T06:29:45;99601.75;;;8.92;100.00
56671;BME280;42545;50.054;8.306;2023-04-28T06:32:12;99598.25;;;8.93;100.00
56671;BME280;42545;50.054;8.306;2023-04-28T06:34:40;99610.53;;;8.94;100.00
56671;BME280;42545;50.054;8.306;2023-04-28T06:37:07;99603.56;;;8.95;100.00
56671;BME280;42545;50.054;8.306;2023-04-28T06:39:33;99605.34;;;8.99;100.00
56671;BME280;42545;50.054;8.306;2023-04-28T06:42:00;99599.25;;;9.00;100.00
56671;BME280;42545;50.054;8.306;2023-04-28T06:44:27;99604.53;;;9.03;100.00
56671;BME280;42545;50.054;8.306;2023-04-28T06:46:53;99601.91;;;9.03;100.00
56671;BME280;42545;50.054;8.306;2023-04-28T06:49:20;99601.00;;;9.01;100.00
56671;BME280;42545;50.054;8.306;2023-04-28T06:51:48;99587.84;;;9.01;100.00
56671;BME280;42545;50.054;8.306;2023-04-28T06:54:15;99578.19;;;9.00;100.00
56671;BME280;42545;50.054;8.306;2023-04-28T06:56:42;99578.19;;;9.00;100.00
56671;BME280;42545;50.054;8.306;2023-04-28T06:59:09;99581.75;;;9.03;100.00
56671;BME280;42545;50.054;8.306;2023-04-28T07:01:35;99583.50;;;9.04;100.00
56671;BME280;42545;50.054;8.306;2023-04-28T07:04:02;99573.84;;;9.05;100.00
56671;BME280;42545;50.054;8.306;2023-04-28T07:06:28;99566.88;;;9.06;100.00
56671;BME280;42545;50.054;8.306;2023-04-28T07:08:57;99563.38;;;9.08;100.00
56671;BME280;42545;50.054;8.306;2023-04-28T07:11:24;99569.56;;;9.10;100.00
56671;BME280;42545;50.054;8.306;2023-04-28T07:13:50;99572.19;;;9.10;100.00
56671;BME280;42545;50.054;8.306;2023-04-28T07:16:17;99563.44;;;9.11;100.00
56671;BME280;42545;50.054;8.306;2023-04-28T07:18:45;99559.97;;;9.14;100.00
56671;BME280;42545;50.054;8.306;2023-04-28T07:21:12;99568.78;;;9.17;100.00
56671;BME280;42545;50.054;8.306;2023-04-28T07:23:38;99567.91;;;9.17;100.00
56671;BME280;42545;50.054;8.306;2023-04-28T07:26:07;99562.66;;;9.18;100.00
56671;BME280;42545;50.054;8.306;2023-04-28T07:28:34;99567.94;;;9.18;100.00
56671;BME280;42545;50.054;8.306;2023-04-28T07:31:00;99560.06;;;9.21;100.00
56671;BME280;42545;50.054;8.306;2023-04-28T07:33:27;99562.75;;;9.24;100.00
56671;BME280;42545;50.054;8.306;2023-04-28T07:35:53;99564.53;;;9.26;100.00
56671;BME280;42545;50.054;8.306;2023-04-28T07:38:20;99557.50;;;9.26;100.00
56671;BME280;42545;50.054;8.306;2023-04-28T07:40:47;99560.16;;;9.28;100.00
56671;BME280;42545;50.054;8.306;2023-04-28T07:43:15;99561.03;;;9.28;100.00
56671;BME280;42545;50.054;8.306;2023-04-28T07:45:42;99568.09;;;9.29;100.00
56671;BME280;42545;50.054;8.306;2023-04-28T07:48:13;99563.75;;;9.33;100.00
56671;BME280;42545;50.054;8.306;2023-04-28T07:50:39;99570.75;;;9.32;100.00
56671;BME280;42545;50.054;8.306;2023-04-28T07:53:06;99578.66;;;9.34;100.00
56671;BME280;42545;50.054;8.306;2023-04-28T07:55:33;99574.28;;;9.33;100.00
56671;BME280;42545;50.054;8.306;2023-04-28T07:57:59;99576.94;;;9.36;100.00
56671;BME280;42545;50.054;8.306;2023-04-28T08:00:27;99571.72;;;9.39;100.00
56671;BME280;42545;50.054;8.306;2023-04-28T08:02:54;99574.41;;;9.42;100.00
56671;BME280;42545;50.054;8.306;2023-04-28T08:05:22;99577.06;;;9.45;100.00
56671;BME280;42545;50.054;8.306;2023-04-28T08:07:48;99592.00;;;9.46;100.00
56671;BME280;42545;50.054;8.306;2023-04-28T08:10:15;99592.00;;;9.46;100.00
56671;BME280;42545;50.054;8.306;2023-04-28T08:12:41;99586.75;;;9.46;100.00
56671;BME280;42545;50.054;8.306;2023-04-28T08:15:09;99585.84;;;9.44;100.00
56671;BME280;42545;50.054;8.306;2023-04-28T08:17:37;99586.63;;;9.37;100.00
56671;BME280;42545;50.054;8.306;2023-04-28T08:20:06;99598.06;;;9.39;100.00
56671;BME280;42545;50.054;8.306;2023-04-28T08:22:34;99596.34;;;9.42;100.00
56671;BME280;42545;50.054;8.306;2023-04-28T08:25:01;99593.72;;;9.44;100.00
56671;BME280;42545;50.054;8.306;2023-04-28T08:27:28;99598.16;;;9.47;100.00
56671;BME280;42545;50.054;8.306;2023-04-28T08:29:54;99597.28;;;9.48;100.00
56671;BME280;42545;50.054;8.306;2023-04-28T08:32:21;99596.41;;;9.49;100.00
56671;BME280;42545;50.054;8.306;2023-04-28T08:34:50;99590.28;;;9.48;100.00
56671;BME280;42545;50.054;8.306;2023-04-28T08:37:16;99594.69;;;9.51;100.00
56671;BME280;42545;50.054;8.306;2023-04-28T08:39:43;99597.34;;;9.52;100.00
56671;BME280;42545;50.054;8.306;2023-04-28T08:42:11;99597.41;;;9.57;100.00
56671;BME280;42545;50.054;8.306;2023-04-28T08:44:38;99595.66;;;9.57;100.00
56671;BME280;42545;50.054;8.306;2023-04-28T08:47:11;99597.41;;;9.57;100.00
56671;BME280;42545;50.054;8.306;2023-04-28T08:49:38;99601.81;;;9.59;100.00
56671;BME280;42545;50.054;8.306;2023-04-28T08:52:10;99601.00;;;9.63;100.00
56671;BME280;42545;50.054;8.306;2023-04-28T08:54:38;99597.56;;;9.71;100.00
56671;BME280;42545;50.054;8.306;2023-04-28T08:57:07;99597.69;;;9.80;100.00
56671;BME280;42545;50.054;8.306;2023-04-28T08:59:37;99591.66;;;9.89;100.00
56671;BME280;42545;50.054;8.306;2023-04-28T09:02:04;99596.13;;;9.96;100.00
56671;BME280;42545;50.054;8.306;2023-04-28T09:04:30;99593.56;;;10.04;100.00
56671;BME280;42545;50.054;8.306;2023-04-28T09:06:57;99603.28;;;10.09;100.00
56671;BME280;42545;50.054;8.306;2023-04-28T09:09:26;99603.44;;;10.22;100.00
56671;BME280;42545;50.054;8.306;2023-04-28T09:11:54;99591.28;;;10.34;100.00
56671;BME280;42545;50.054;8.306;2023-04-28T09:14:22;99584.28;;;10.35;100.00
56671;BME280;42545;50.054;8.306;2023-04-28T09:16:50;99588.81;;;10.50;100.00
56671;BME280;42545;50.054;8.306;2023-04-28T09:19:16;99588.91;;;10.61;100.00
56671;BME280;42545;50.054;8.306;2023-04-28T09:21:51;99588.97;;;10.68;100.00
56671;BME280;42545;50.054;8.306;2023-04-28T09:24:28;99589.00;;;10.74;100.00
56671;BME280;42545;50.054;8.306;2023-04-28T09:26:55;99592.53;;;10.75;100.00
56671;BME280;42545;50.054;8.306;2023-04-28T09:29:22;99587.25;;;10.76;100.00
56671;BME280;42545;50.054;8.306;2023-04-28T09:31:49;99587.28;;;10.78;100.00
56671;BME280;42545;50.054;8.306;2023-04-28T09:34:16;99593.44;;;10.75;100.00
56671;BME280;42545;50.054;8.306;2023-04-28T09:36:42;99594.31;;;10.76;100.00
56671;BME280;42545;50.054;8.306;2023-04-28T09:39:10;99596.06;;;10.78;100.00
56671;BME280;42545;50.054;8.306;2023-04-28T09:41:39;99596.13;;;10.85;100.00
56671;BME280;42545;50.054;8.306;2023-04-28T09:44:11;99602.34;;;10.93;100.00
56671;BME280;42545;50.054;8.306;2023-04-28T09:46:38;99599.75;;;10.98;100.00
56671;BME280;42545;50.054;8.306;2023-04-28T09:49:05;99592.69;;;10.96;100.00
56671;BME280;42545;50.054;8.306;2023-04-28T09:51:33;99591.91;;;11.07;100.00
56671;BME280;42545;50.054;8.306;2023-04-28T09:54:00;99593.69;;;11.12;100.00
56671;BME280;42545;50.054;8.306;2023-04-28T09:56:29;99573.44;;;11.11;100.00
56671;BME280;42545;50.054;8.306;2023-04-28T09:58:58;99578.75;;;11.21;100.00
56671;BME280;42545;50.054;8.306;2023-04-28T10:01:26;99588.56;;;11.40;100.00
56671;BME280;42545;50.054;8.306;2023-04-28T10:03:55;99593.03;;;11.50;100.00
56671;BME280;42545;50.054;8.306;2023-04-28T10:06:23;99597.44;;;11.51;100.00
56671;BME280;42545;50.054;8.306;2023-04-28T10:08:52;99594.81;;;11.54;100.00
56671;BME280;42545;50.054;8.306;2023-04-28T10:11:18;99594.84;;;11.58;100.00
56671;BME280;42545;50.054;8.306;2023-04-28T10:13:47;99595.75;;;11.63;100.00
56671;BME280;42545;50.054;8.306;2023-04-28T10:16:16;99591.38;;;11.66;100.00
56671;BME280;42545;50.054;8.306;2023-04-28T10:18:45;99577.28;;;11.77;100.00
56671;BME280;42545;50.054;8.306;2023-04-28T10:21:16;99573.88;;;11.98;100.00
56671;BME280;42545;50.054;8.306;2023-04-28T10:23:55;99573.94;;;12.18;100.00
56671;BME280;42545;50.054;8.306;2023-04-28T10:29:22;99576.59;;;12.42;100.00
56671;BME280;42545;50.054;8.306;2023-04-28T10:32:16;99564.25;;;12.44;100.00
56671;BME280;42545;50.054;8.306;2023-04-28T10:34:44;99560.75;;;12.47;100.00
56671;BME280;42545;50.054;8.306;2023-04-28T10:37:11;99559.88;;;12.54;100.00
56671;BME280;42545;50.054;8.306;2023-04-28T10:39:39;99558.09;;;12.56;100.00
56671;BME280;42545;50.054;8.306;2023-04-28T10:42:50;99567.81;;;12.65;100.00
56671;BME280;42545;50.054;8.306;2023-04-28T10:45:57;99570.47;;;12.71;100.00
56671;BME280;42545;50.054;8.306;2023-04-28T10:48:56;99573.13;;;12.74;100.00
56671;BME280;42545;50.054;8.306;2023-04-28T10:51:27;99574.84;;;12.75;100.00
56671;BME280;42545;50.054;8.306;2023-04-28T10:54:14;99567.81;;;12.74;100.00
56671;BME280;42545;50.054;8.306;2023-04-28T10:59:43;99570.47;;;12.74;100.00
56671;BME280;42545;50.054;8.306;2023-04-28T11:02:36;99565.16;;;12.74;100.00
56671;BME280;42545;50.054;8.306;2023-04-28T11:05:16;99556.34;;;12.77;100.00
56671;BME280;42545;50.054;8.306;2023-04-28T11:11:17;99556.31;;;12.95;100.00
56671;BME280;42545;50.054;8.306;2023-04-28T11:13:44;99543.94;;;13.05;100.00
56671;BME280;42545;50.054;8.306;2023-04-28T11:16:18;99552.75;;;13.15;100.00
56671;BME280;42545;50.054;8.306;2023-04-28T11:18:54;99556.25;;;13.24;100.00
56671;BME280;42545;50.054;8.306;2023-04-28T11:21:24;99558.03;;;13.35;100.00
56671;BME280;42545;50.054;8.306;2023-04-28T11:23:52;99545.63;;;13.46;100.00
56671;BME280;42545;50.054;8.306;2023-04-28T11:26:19;99545.59;;;13.54;100.00
56671;BME280;42545;50.054;8.306;2023-04-28T11:28:49;99544.63;;;13.75;100.00
56671;BME280;42545;50.054;8.306;2023-04-28T11:31:18;99548.13;;;13.84;100.00
56671;BME280;42545;50.054;8.306;2023-04-28T11:33:50;99553.41;;;13.89;100.00
56671;BME280;42545;50.054;8.306;2023-04-28T11:36:26;99551.63;;;13.93;100.00
56671;BME280;42545;50.054;8.306;2023-04-28T11:38:54;99538.38;;;13.83;99.95
56671;BME280;42545;50.054;8.306;2023-04-28T11:41:21;99546.34;;;13.83;100.00
56671;BME280;42545;50.054;8.306;2023-04-28T11:43:48;99541.94;;;13.84;100.00
56671;BME280;42545;50.054;8.306;2023-04-28T11:46:19;99533.06;;;13.90;100.00
56671;BME280;42545;50.054;8.306;2023-04-28T11:48:47;99529.44;;;14.00;100.00
56671;BME280;42545;50.054;8.306;2023-04-28T11:51:32;99542.69;;;14.09;100.00
56671;BME280;42545;50.054;8.306;2023-04-28T11:54:00;99537.31;;;14.17;100.00
56671;BME280;42545;50.054;8.306;2023-04-28T11:56:29;99541.66;;;14.29;100.00
56671;BME280;42545;50.054;8.306;2023-04-28T11:59:02;99538.06;;;14.37;100.00
56671;BME280;42545;50.054;8.306;2023-04-28T12:01:31;99534.44;;;14.48;100.00
56671;BME280;42545;50.054;8.306;2023-04-28T12:03:58;99540.63;;;14.50;100.00
56671;BME280;42545;50.054;8.306;2023-04-28T12:06:25;99529.94;;;14.54;100.00
56671;BME280;42545;50.054;8.306;2023-04-28T12:08:54;99532.56;;;14.64;100.00
56671;BME280;42545;50.054;8.306;2023-04-28T12:11:21;99526.34;;;14.68;100.00
56671;BME280;42545;50.054;8.306;2023-04-28T12:14:04;99525.41;;;14.75;100.00
56671;BME280;42545;50.054;8.306;2023-04-28T12:16:42;99528.00;;;14.83;99.98
56671;BME280;42545;50.054;8.306;2023-04-28T12:19:11;99522.63;;;14.87;99.82
56671;BME280;42545;50.054;8.306;2023-04-28T12:21:39;99519.84;;;14.99;99.90
56671;BME280;42545;50.054;8.306;2023-04-28T12:24:16;99510.81;;;15.14;100.00
56671;BME280;42545;50.054;8.306;2023-04-28T12:26:48;99512.50;;;15.25;99.73
56671;BME280;42545;50.054;8.306;2023-04-28T12:29:34;99516.88;;;15.27;98.57
56671;BME280;42545;50.054;8.306;2023-04-28T12:32:02;99523.13;;;15.26;98.06
56671;BME280;42545;50.054;8.306;2023-04-28T12:34:44;99529.31;;;15.25;98.32
56671;BME280;42545;50.054;8.306;2023-04-28T12:37:13;99528.44;;;15.26;98.00
56671;BME280;42545;50.054;8.306;2023-04-28T12:39:41;99516.00;;;15.30;98.19
56671;BME280;42545;50.054;8.306;2023-04-28T12:42:11;99517.69;;;15.34;98.03
56671;BME280;42545;50.054;8.306;2023-04-28T12:44:38;99512.34;;;15.37;97.37
56671;BME280;42545;50.054;8.306;2023-04-28T12:47:06;99517.47;;;15.52;97.32
56671;BME280;42545;50.054;8.306;2023-04-28T12:49:33;99511.09;;;15.64;96.76
56671;BME280;42545;50.054;8.306;2023-04-28T12:52:03;99509.28;;;15.69;95.11
56671;BME280;42545;50.054;8.306;2023-04-28T12:54:31;99504.91;;;15.65;95.61
56671;BME280;42545;50.054;8.306;2023-04-28T12:56:59;99514.56;;;15.71;96.10
56671;BME280;42545;50.054;8.306;2023-04-28T12:59:26;99501.28;;;15.71;95.84
56671;BME280;42545;50.054;8.306;2023-04-28T13:01:53;99495.97;;;15.74;95.88
56671;BME280;42545;50.054;8.306;2023-04-28T13:04:22;99492.38;;;15.75;95.54
56671;BME280;42545;50.054;8.306;2023-04-28T13:06:48;99497.69;;;15.75;95.71
56671;BME280;42545;50.054;8.306;2023-04-28T13:09:16;99498.59;;;15.75;95.52
56671;BME280;42545;50.054;8.306;2023-04-28T13:11:43;99495.97;;;15.71;95.03